createdAt,value
2023-03-26T00:00:48.512Z,7.73
2023-03-26T00:03:17.349Z,7.78
2023-03-26T00:05:46.437Z,7.62
2023-03-26T00:11:04.373Z,7.84
2023-03-26T00:13:33.133Z,8.00
2023-03-26T00:16:01.805Z,7.81
2023-03-26T00:18:31.519Z,7.86
2023-03-26T00:20:59.939Z,7.88
2023-03-26T00:23:28.167Z,7.99
2023-03-26T00:25:56.981Z,8.04
2023-03-26T00:28:26.312Z,8.03
2023-03-26T00:30:59.016Z,8.21
2023-03-26T00:36:26.582Z,8.32
2023-03-26T00:38:54.623Z,8.25
2023-03-26T00:41:25.530Z,8.27
2023-03-26T00:43:57.524Z,8.33
2023-03-26T00:46:25.523Z,8.31
2023-03-26T00:49:18.644Z,8.25
2023-03-26T00:51:46.074Z,8.42
2023-03-26T00:54:13.607Z,8.30
2023-03-26T00:56:41.178Z,8.30
2023-03-26T01:02:17.126Z,8.34
2023-03-26T01:04:46.033Z,8.24
2023-03-26T01:07:16.683Z,8.36
2023-03-26T01:09:50.133Z,8.33
2023-03-26T01:15:08.207Z,8.10
2023-03-26T01:17:37.812Z,8.06
2023-03-26T01:20:13.341Z,8.14
2023-03-26T01:22:43.442Z,7.99
2023-03-26T01:25:12.733Z,8.05
2023-03-26T01:27:41.804Z,7.89
2023-03-26T01:30:14.766Z,7.83
2023-03-26T01:35:48.379Z,8.12
2023-03-26T01:41:35.058Z,8.26
2023-03-26T01:44:07.933Z,8.21
2023-03-26T01:46:38.783Z,8.20
2023-03-26T01:49:12.783Z,8.23
2023-03-26T01:51:42.361Z,8.35
2023-03-26T01:54:12.346Z,8.35
2023-03-26T01:56:50.837Z,8.31
2023-03-26T01:59:28.864Z,8.40
2023-03-26T02:02:01.269Z,8.31
2023-03-26T02:07:37.797Z,8.31
2023-03-26T02:10:11.202Z,8.48
2023-03-26T02:15:40.431Z,8.53
2023-03-26T02:18:10.734Z,8.63
2023-03-26T02:20:38.471Z,8.56
2023-03-26T02:23:06.576Z,8.46
2023-03-26T02:28:32.894Z,8.70
2023-03-26T02:31:02.684Z,8.44
2023-03-26T02:33:32.105Z,8.53
2023-03-26T02:36:01.810Z,8.34
2023-03-26T02:41:18.721Z,8.45
2023-03-26T02:44:00.203Z,8.27
2023-03-26T02:46:48.995Z,8.31
2023-03-26T02:49:36.739Z,8.38
2023-03-26T02:52:10.784Z,8.31
2023-03-26T02:54:38.430Z,8.38
2023-03-26T03:00:14.097Z,8.17
2023-03-26T03:02:52.696Z,8.29
2023-03-26T03:05:32.598Z,8.35
2023-03-26T03:08:19.242Z,8.30
2023-03-26T03:11:13.272Z,8.44
2023-03-26T03:13:48.738Z,8.26
2023-03-26T03:19:24.049Z,8.44
2023-03-26T03:21:51.577Z,8.56
2023-03-26T03:24:19.085Z,8.47
2023-03-26T03:26:50.210Z,8.43
2023-03-26T03:32:19.752Z,8.55
2023-03-26T03:34:50.747Z,8.70
2023-03-26T03:37:19.303Z,8.76
2023-03-26T03:39:52.226Z,8.68
2023-03-26T03:42:22.174Z,8.56
2023-03-26T03:44:52.183Z,8.40
2023-03-26T03:47:38.136Z,8.39
2023-03-26T03:50:08.869Z,8.37
2023-03-26T03:52:37.629Z,8.49
2023-03-26T03:58:09.043Z,8.67
2023-03-26T04:00:38.115Z,8.56
2023-03-26T04:03:33.077Z,8.73
2023-03-26T04:06:06.706Z,8.68
2023-03-26T04:08:34.800Z,8.70
2023-03-26T04:11:02.487Z,8.74
2023-03-26T04:13:49.962Z,8.49
2023-03-26T04:16:27.986Z,8.62
2023-03-26T04:18:57.242Z,8.81
2023-03-26T04:21:30.126Z,8.77
2023-03-26T04:23:58.039Z,9.01
2023-03-26T04:26:43.929Z,8.89
2023-03-26T04:29:16.892Z,8.73
2023-03-26T04:31:46.879Z,8.94
2023-03-26T04:37:24.628Z,8.43
2023-03-26T04:40:09.403Z,8.62
2023-03-26T04:42:49.460Z,8.67
2023-03-26T04:45:31.198Z,8.55
2023-03-26T04:47:59.054Z,8.27
2023-03-26T04:50:27.197Z,8.48
2023-03-26T04:52:58.190Z,8.66
2023-03-26T04:55:46.401Z,8.63
2023-03-26T04:58:29.903Z,8.64
2023-03-26T05:01:00.985Z,8.89
2023-03-26T05:03:40.590Z,8.96
2023-03-26T05:08:52.306Z,9.09
2023-03-26T05:11:39.758Z,8.91
2023-03-26T05:14:07.687Z,8.41
2023-03-26T05:16:35.805Z,8.57
2023-03-26T05:19:08.538Z,8.40
2023-03-26T05:21:36.565Z,8.54
2023-03-26T05:26:54.057Z,8.44
2023-03-26T05:29:24.186Z,8.53
2023-03-26T05:31:53.680Z,8.52
2023-03-26T05:34:23.983Z,8.97
2023-03-26T05:39:41.159Z,8.97
2023-03-26T05:42:39.012Z,8.69
2023-03-26T05:45:32.033Z,8.67
2023-03-26T05:48:04.915Z,8.69
2023-03-26T05:50:38.615Z,8.84
2023-03-26T05:53:06.072Z,8.36
2023-03-26T05:58:50.114Z,8.49
2023-03-26T06:01:44.519Z,8.57
2023-03-26T06:04:13.523Z,8.55
2023-03-26T06:06:47.364Z,8.36
2023-03-26T06:09:14.861Z,8.63
2023-03-26T06:11:43.194Z,8.54
2023-03-26T06:14:12.121Z,8.79
2023-03-26T06:16:45.773Z,8.95
2023-03-26T06:19:19.990Z,8.91
2023-03-26T06:22:12.240Z,9.12
2023-03-26T06:24:59.641Z,9.34
2023-03-26T06:30:53.581Z,9.42
2023-03-26T06:36:35.781Z,9.62
2023-03-26T06:39:07.727Z,9.58
2023-03-26T06:41:37.262Z,9.67
2023-03-26T06:44:25.160Z,9.84
2023-03-26T06:47:12.920Z,9.95
2023-03-26T06:49:58.683Z,10.18
2023-03-26T06:52:38.085Z,9.77
2023-03-26T06:55:23.881Z,10.10
2023-03-26T06:58:07.586Z,10.29
2023-03-26T07:01:00.969Z,10.45
2023-03-26T07:03:53.535Z,10.42
2023-03-26T07:06:42.301Z,10.76
2023-03-26T07:09:30.217Z,10.45
2023-03-26T07:12:29.716Z,10.64
2023-03-26T07:15:29.492Z,9.91
2023-03-26T07:21:24.131Z,10.86
2023-03-26T07:23:56.541Z,10.98
2023-03-26T07:26:57.923Z,11.11
2023-03-26T07:29:36.130Z,11.11
2023-03-26T07:32:19.235Z,11.47
2023-03-26T07:34:56.697Z,10.99
2023-03-26T07:37:44.095Z,11.38
2023-03-26T07:40:45.318Z,11.27
2023-03-26T07:43:42.236Z,11.51
2023-03-26T07:46:12.501Z,11.35
2023-03-26T07:49:00.372Z,11.64
2023-03-26T07:51:54.751Z,11.65
2023-03-26T07:55:12.199Z,11.65
2023-03-26T07:58:07.277Z,11.61
2023-03-26T08:03:57.462Z,12.36
2023-03-26T08:06:50.087Z,12.35
2023-03-26T08:09:38.388Z,12.25
2023-03-26T08:12:35.560Z,12.21
2023-03-26T08:18:16.847Z,12.50
2023-03-26T08:20:47.761Z,12.72
2023-03-26T08:23:20.877Z,12.22
2023-03-26T08:25:54.954Z,12.11
2023-03-26T08:31:33.834Z,12.54
2023-03-26T08:34:02.685Z,12.74
2023-03-26T08:36:30.391Z,12.92
2023-03-26T08:39:23.128Z,13.01
2023-03-26T08:42:10.763Z,13.15
2023-03-26T08:44:52.147Z,12.60
2023-03-26T08:48:08.280Z,13.11
2023-03-26T08:51:03.207Z,13.21
2023-03-26T08:53:52.129Z,13.81
2023-03-26T08:56:22.060Z,14.23
2023-03-26T08:59:19.974Z,14.10
2023-03-26T09:02:07.409Z,13.98
2023-03-26T09:08:00.459Z,14.55
2023-03-26T09:10:47.354Z,14.65
2023-03-26T09:13:30.919Z,14.51
2023-03-26T09:16:17.936Z,14.65
2023-03-26T09:18:58.989Z,14.41
2023-03-26T09:24:44.075Z,14.38
2023-03-26T09:27:27.563Z,14.36
2023-03-26T09:33:14.708Z,14.32
2023-03-26T09:38:46.093Z,14.44
2023-03-26T09:41:19.402Z,14.76
2023-03-26T09:44:10.191Z,14.97
2023-03-26T09:49:46.325Z,15.12
2023-03-26T09:52:23.268Z,15.19
2023-03-26T09:55:00.280Z,15.25
2023-03-26T09:57:45.733Z,15.15
2023-03-26T10:00:22.445Z,15.25
2023-03-26T10:03:28.247Z,13.62
2023-03-26T10:09:09.818Z,13.58
2023-03-26T10:14:44.871Z,13.57
2023-03-26T10:17:34.484Z,13.50
2023-03-26T10:20:13.208Z,12.77
2023-03-26T10:22:50.454Z,12.89
2023-03-26T10:25:55.618Z,13.01
2023-03-26T10:28:41.888Z,13.13
2023-03-26T10:34:29.345Z,13.58
2023-03-26T10:40:10.001Z,13.71
2023-03-26T10:42:51.447Z,13.49
2023-03-26T10:48:31.307Z,13.46
2023-03-26T10:51:19.379Z,13.42
2023-03-26T10:53:50.541Z,13.50
2023-03-26T10:59:56.392Z,13.32
2023-03-26T11:02:30.734Z,13.22
2023-03-26T11:05:19.187Z,13.31
2023-03-26T11:07:55.989Z,13.50
2023-03-26T11:10:30.234Z,13.54
2023-03-26T11:13:04.516Z,13.49
2023-03-26T11:15:37.309Z,13.55
2023-03-26T11:18:10.234Z,13.36
2023-03-26T11:20:43.342Z,13.01
2023-03-26T11:35:58.822Z,11.92
2023-03-26T11:41:31.040Z,11.21
2023-03-26T11:44:19.496Z,11.21
2023-03-26T11:46:47.744Z,10.58
2023-03-26T11:49:18.417Z,10.64
2023-03-26T11:56:38.536Z,10.52
2023-03-26T11:59:11.203Z,10.46
2023-03-26T12:01:44.260Z,10.20
2023-03-26T12:04:17.828Z,9.68
2023-03-26T12:06:56.536Z,9.63
2023-03-26T12:12:32.368Z,8.59
2023-03-26T12:18:23.747Z,8.89
2023-03-26T12:21:04.460Z,8.93
2023-03-26T12:23:38.739Z,9.12
2023-03-26T12:26:14.767Z,9.40
2023-03-26T12:28:47.356Z,9.58
2023-03-26T12:31:19.338Z,9.56
2023-03-26T12:33:52.781Z,9.46
2023-03-26T12:40:07.066Z,9.23
2023-03-26T12:45:32.323Z,9.17
2023-03-26T12:48:03.551Z,9.21
2023-03-26T12:50:44.233Z,9.04
2023-03-26T12:53:23.870Z,9.20
2023-03-26T12:56:15.340Z,9.51
2023-03-26T12:58:55.141Z,9.68
2023-03-26T13:04:43.605Z,10.26
2023-03-26T13:10:38.580Z,10.44
2023-03-26T13:13:19.691Z,10.47
2023-03-26T13:15:51.341Z,10.55
2023-03-26T13:18:43.971Z,10.65
2023-03-26T13:21:35.534Z,10.85
2023-03-26T13:24:11.230Z,10.98
2023-03-26T13:26:49.227Z,11.07
2023-03-26T13:29:21.600Z,11.17
2023-03-26T13:31:55.835Z,11.22
2023-03-26T13:34:29.894Z,11.27
2023-03-26T13:37:04.564Z,11.11
2023-03-26T13:39:38.697Z,11.20
2023-03-26T13:42:16.147Z,11.26
2023-03-26T13:44:53.507Z,11.24
2023-03-26T13:50:38.470Z,11.03
2023-03-26T13:53:07.798Z,10.87
2023-03-26T13:55:39.335Z,10.85
2023-03-26T14:01:05.548Z,10.87
2023-03-26T14:03:45.058Z,10.95
2023-03-26T14:06:29.727Z,10.97
2023-03-26T14:08:59.194Z,11.08
2023-03-26T14:11:34.131Z,11.12
2023-03-26T14:14:05.010Z,11.21
2023-03-26T14:24:06.535Z,10.97
2023-03-26T14:26:48.532Z,11.18
2023-03-26T14:29:57.106Z,11.11
2023-03-26T14:32:40.605Z,11.23
2023-03-26T14:35:23.198Z,11.28
2023-03-26T14:38:13.496Z,11.30
2023-03-26T14:40:51.026Z,11.02
2023-03-26T14:43:41.754Z,11.02
2023-03-26T14:46:15.634Z,11.10
2023-03-26T14:48:58.013Z,11.04
2023-03-26T14:51:37.039Z,10.68
2023-03-26T14:57:32.788Z,10.00
2023-03-26T15:00:26.929Z,9.84
2023-03-26T15:03:04.318Z,9.81
2023-03-26T15:05:57.979Z,9.82
2023-03-26T15:11:28.044Z,9.13
2023-03-26T15:14:15.849Z,9.21
2023-03-26T15:17:12.839Z,9.18
2023-03-26T15:20:10.436Z,9.21
2023-03-26T15:23:26.936Z,9.15
2023-03-26T15:26:19.674Z,8.99
2023-03-26T15:29:10.978Z,8.72
2023-03-26T15:35:17.540Z,8.54
2023-03-26T15:41:04.999Z,8.74
2023-03-26T15:44:23.925Z,8.45
2023-03-26T15:46:58.751Z,8.17
2023-03-26T15:49:31.831Z,8.20
2023-03-26T15:52:07.773Z,8.54
2023-03-26T15:54:39.840Z,8.60
2023-03-26T15:57:19.786Z,8.61
2023-03-26T15:59:59.112Z,8.43
2023-03-26T16:02:34.615Z,8.67
2023-03-26T16:05:21.191Z,8.84
2023-03-26T16:07:58.614Z,8.55
2023-03-26T16:10:29.364Z,8.48
2023-03-26T16:15:58.294Z,8.51
2023-03-26T16:18:31.961Z,8.36
2023-03-26T16:21:31.299Z,8.55
2023-03-26T16:24:19.014Z,8.42
2023-03-26T16:26:56.122Z,8.59
2023-03-26T16:29:42.318Z,8.67
2023-03-26T16:32:16.422Z,8.64
2023-03-26T16:34:50.501Z,8.48
2023-03-26T16:37:40.693Z,8.53
2023-03-26T16:43:31.351Z,8.20
2023-03-26T16:48:58.723Z,8.03
2023-03-26T16:51:32.058Z,7.85
2023-03-26T16:54:02.779Z,7.58
2023-03-26T16:56:34.981Z,7.46
2023-03-26T17:02:10.141Z,7.41
2023-03-26T17:04:38.504Z,7.61
2023-03-26T17:07:14.600Z,7.65
2023-03-26T17:12:48.958Z,7.47
2023-03-26T17:18:39.175Z,6.97
2023-03-26T17:21:11.318Z,7.00
2023-03-26T17:23:53.110Z,6.94
2023-03-26T17:26:26.651Z,6.99
2023-03-26T17:29:11.215Z,6.97
2023-03-26T17:34:46.746Z,6.87
2023-03-26T17:40:45.715Z,6.61
2023-03-26T17:43:13.719Z,6.73
2023-03-26T17:45:43.642Z,6.81
2023-03-26T17:48:17.769Z,6.73
2023-03-26T17:50:51.421Z,6.77
2023-03-26T17:56:26.311Z,6.59
2023-03-26T17:58:58.556Z,6.70
2023-03-26T18:01:41.247Z,6.79
2023-03-26T18:04:13.588Z,6.86
2023-03-26T18:09:57.721Z,6.38
2023-03-26T18:15:55.767Z,6.35
2023-03-26T18:18:26.266Z,6.38
2023-03-26T18:23:53.593Z,6.26
2023-03-26T18:26:34.830Z,6.03
2023-03-26T18:31:54.618Z,5.95
2023-03-26T18:34:24.248Z,5.85
2023-03-26T18:37:00.925Z,5.82
2023-03-26T18:39:28.363Z,5.92
2023-03-26T18:41:58.853Z,6.05
2023-03-26T18:44:26.892Z,5.92
2023-03-26T18:46:55.460Z,5.93
2023-03-26T18:49:24.384Z,6.07
2023-03-26T18:54:52.546Z,5.91
2023-03-26T18:57:23.537Z,5.82
2023-03-26T18:59:52.196Z,5.77
2023-03-26T19:02:20.604Z,5.53
2023-03-26T19:07:47.538Z,5.42
2023-03-26T19:10:21.270Z,5.20
2023-03-26T19:15:39.514Z,5.10
2023-03-26T19:18:13.681Z,5.07
2023-03-26T19:20:43.769Z,5.01
2023-03-26T19:23:15.341Z,4.94
2023-03-26T19:25:47.343Z,5.06
2023-03-26T19:28:18.058Z,4.83
2023-03-26T19:30:46.948Z,4.86
2023-03-26T19:33:18.155Z,4.83
2023-03-26T19:35:47.677Z,4.66
2023-03-26T19:38:32.485Z,4.65
2023-03-26T19:41:00.060Z,4.43
2023-03-26T19:43:28.023Z,4.50
2023-03-26T19:46:00.470Z,4.39
2023-03-26T19:51:32.558Z,4.10
2023-03-26T19:54:01.171Z,4.16
2023-03-26T19:56:28.728Z,4.06
2023-03-26T19:58:57.443Z,3.96
2023-03-26T20:04:14.944Z,3.78
2023-03-26T20:06:44.199Z,3.75
2023-03-26T20:09:12.315Z,3.68
2023-03-26T20:11:40.524Z,3.59
2023-03-26T20:14:12.675Z,3.42
2023-03-26T20:16:41.660Z,3.29
2023-03-26T20:19:11.017Z,3.18
2023-03-26T20:21:41.191Z,3.12
2023-03-26T20:24:12.063Z,3.22
2023-03-26T20:26:42.262Z,3.09
2023-03-26T20:29:10.005Z,3.10
2023-03-26T20:34:39.864Z,3.30
2023-03-26T20:37:09.816Z,3.14
2023-03-26T20:39:37.693Z,3.03
2023-03-26T20:42:05.292Z,2.95
2023-03-26T20:47:21.601Z,2.93
2023-03-26T20:49:49.048Z,2.93
2023-03-26T20:52:18.594Z,2.99
2023-03-26T20:54:46.026Z,2.88
2023-03-26T20:57:13.555Z,2.81
2023-03-26T20:59:41.767Z,2.89
2023-03-26T21:02:11.615Z,2.81
2023-03-26T21:04:39.103Z,2.77
2023-03-26T21:07:17.646Z,2.79
2023-03-26T21:09:48.588Z,2.97
2023-03-26T21:12:20.426Z,3.05
2023-03-26T21:17:46.055Z,2.82
2023-03-26T21:20:16.631Z,2.97
2023-03-26T21:22:49.305Z,2.99
2023-03-26T21:25:22.978Z,2.90
2023-03-26T21:27:58.874Z,2.95
2023-03-26T21:30:27.055Z,3.12
2023-03-26T21:32:54.525Z,3.20
2023-03-26T21:35:23.080Z,3.11
2023-03-26T21:40:58.797Z,2.92
2023-03-26T21:43:27.159Z,2.87
2023-03-26T21:45:57.396Z,2.78
2023-03-26T21:48:25.558Z,2.72
2023-03-26T21:53:56.266Z,2.76
2023-03-26T21:59:38.181Z,2.86
2023-03-26T22:02:09.928Z,2.73
2023-03-26T22:07:40.998Z,2.58
2023-03-26T22:10:08.660Z,2.48
2023-03-26T22:12:37.490Z,2.62
2023-03-26T22:15:05.460Z,2.60
2023-03-26T22:17:32.996Z,2.47
2023-03-26T22:20:01.179Z,2.34
2023-03-26T22:22:29.539Z,2.32
2023-03-26T22:24:57.036Z,2.42
2023-03-26T22:27:24.475Z,2.46
2023-03-26T22:29:53.288Z,2.56
2023-03-26T22:32:21.095Z,2.32
2023-03-26T22:37:41.593Z,2.11
2023-03-26T22:40:10.239Z,2.14
2023-03-26T22:42:37.674Z,2.21
2023-03-26T22:45:07.811Z,2.01
2023-03-26T22:47:35.404Z,1.89
2023-03-26T22:53:05.551Z,2.11
2023-03-26T22:55:32.967Z,1.96
2023-03-26T22:58:00.637Z,1.89
2023-03-26T23:00:30.561Z,1.90
2023-03-26T23:05:57.678Z,1.74
2023-03-26T23:08:25.830Z,1.61
2023-03-26T23:10:53.434Z,1.78
2023-03-26T23:13:21.906Z,1.67
2023-03-26T23:15:53.248Z,1.71
2023-03-26T23:18:22.020Z,1.72
2023-03-26T23:20:52.700Z,1.54
2023-03-26T23:26:22.561Z,1.35
2023-03-26T23:28:50.991Z,1.39
2023-03-26T23:31:19.790Z,1.43
2023-03-26T23:33:47.454Z,1.37
2023-03-26T23:36:17.392Z,1.48
2023-03-26T23:38:46.530Z,1.38
2023-03-26T23:41:15.695Z,1.33
2023-03-26T23:43:54.368Z,1.26
2023-03-26T23:46:25.512Z,1.32
2023-03-26T23:51:55.528Z,1.11
2023-03-26T23:54:25.754Z,1.19
2023-03-26T23:56:54.786Z,1.13
